sensor_id;sensor_type;location;lat;lon;timestamp;P1;durP1;ratioP1;P2;durP2;ratioP2
15708;SDS011;7954;51.914;8.420;2023-06-22T00:02:00;6.33;;;5.83;;
15708;SDS011;7954;51.914;8.420;2023-06-22T00:04:28;5.33;;;4.93;;
15708;SDS011;7954;51.914;8.420;2023-06-22T00:06:56;5.20;;;4.80;;
15708;SDS011;7954;51.914;8.420;2023-06-22T00:09:26;5.40;;;4.90;;
15708;SDS011;7954;51.914;8.420;2023-06-22T00:11:54;4.33;;;4.00;;
15708;SDS011;7954;51.914;8.420;2023-06-22T00:14:21;4.53;;;4.23;;
15708;SDS011;7954;51.914;8.420;2023-06-22T00:16:49;5.00;;;4.60;;
15708;SDS011;7954;51.914;8.420;2023-06-22T00:19:21;4.67;;;4.27;;
15708;SDS011;7954;51.914;8.420;2023-06-22T00:21:49;4.60;;;4.30;;
15708;SDS011;7954;51.914;8.420;2023-06-22T00:24:19;4.67;;;4.37;;
15708;SDS011;7954;51.914;8.420;2023-06-22T00:26:48;4.73;;;4.33;;
15708;SDS011;7954;51.914;8.420;2023-06-22T00:29:16;5.00;;;4.63;;
15708;SDS011;7954;51.914;8.420;2023-06-22T00:31:45;4.40;;;4.10;;
15708;SDS011;7954;51.914;8.420;2023-06-22T00:34:13;5.00;;;4.40;;
15708;SDS011;7954;51.914;8.420;2023-06-22T00:36:42;4.60;;;4.30;;
15708;SDS011;7954;51.914;8.420;2023-06-22T00:39:10;4.40;;;4.10;;
15708;SDS011;7954;51.914;8.420;2023-06-22T00:41:38;4.90;;;4.50;;
15708;SDS011;7954;51.914;8.420;2023-06-22T00:44:07;5.37;;;4.90;;
15708;SDS011;7954;51.914;8.420;2023-06-22T00:46:35;7.30;;;4.90;;
15708;SDS011;7954;51.914;8.420;2023-06-22T00:49:03;5.07;;;4.67;;
15708;SDS011;7954;51.914;8.420;2023-06-22T00:51:31;4.80;;;4.40;;
15708;SDS011;7954;51.914;8.420;2023-06-22T00:54:00;4.67;;;4.27;;
15708;SDS011;7954;51.914;8.420;2023-06-22T00:56:28;4.90;;;4.50;;
15708;SDS011;7954;51.914;8.420;2023-06-22T00:58:56;5.10;;;4.60;;
15708;SDS011;7954;51.914;8.420;2023-06-22T01:01:27;5.30;;;4.80;;
15708;SDS011;7954;51.914;8.420;2023-06-22T01:03:56;5.77;;;5.27;;
15708;SDS011;7954;51.914;8.420;2023-06-22T01:06:26;5.30;;;4.90;;
15708;SDS011;7954;51.914;8.420;2023-06-22T01:09:00;4.97;;;4.57;;
15708;SDS011;7954;51.914;8.420;2023-06-22T01:11:32;5.03;;;4.63;;
15708;SDS011;7954;51.914;8.420;2023-06-22T01:14:06;5.27;;;4.83;;
15708;SDS011;7954;51.914;8.420;2023-06-22T01:16:44;4.97;;;4.57;;
15708;SDS011;7954;51.914;8.420;2023-06-22T01:19:17;5.00;;;4.60;;
15708;SDS011;7954;51.914;8.420;2023-06-22T01:21:56;5.10;;;4.70;;
15708;SDS011;7954;51.914;8.420;2023-06-22T01:24:26;5.40;;;5.00;;
15708;SDS011;7954;51.914;8.420;2023-06-22T01:27:05;4.87;;;4.47;;
15708;SDS011;7954;51.914;8.420;2023-06-22T01:29:41;4.53;;;4.23;;
15708;SDS011;7954;51.914;8.420;2023-06-22T01:32:10;5.10;;;4.70;;
15708;SDS011;7954;51.914;8.420;2023-06-22T01:34:39;5.03;;;4.73;;
15708;SDS011;7954;51.914;8.420;2023-06-22T01:37:08;5.07;;;4.67;;
15708;SDS011;7954;51.914;8.420;2023-06-22T01:39:36;5.30;;;4.80;;
15708;SDS011;7954;51.914;8.420;2023-06-22T01:42:05;5.47;;;4.97;;
15708;SDS011;7954;51.914;8.420;2023-06-22T01:44:33;7.07;;;4.90;;
15708;SDS011;7954;51.914;8.420;2023-06-22T01:47:03;4.47;;;4.17;;
15708;SDS011;7954;51.914;8.420;2023-06-22T01:49:32;4.73;;;4.43;;
15708;SDS011;7954;51.914;8.420;2023-06-22T01:52:00;5.67;;;5.17;;
15708;SDS011;7954;51.914;8.420;2023-06-22T01:54:29;5.10;;;4.70;;
15708;SDS011;7954;51.914;8.420;2023-06-22T01:56:56;5.57;;;5.00;;
15708;SDS011;7954;51.914;8.420;2023-06-22T01:59:25;5.03;;;4.60;;
15708;SDS011;7954;51.914;8.420;2023-06-22T02:02:00;5.10;;;4.70;;
15708;SDS011;7954;51.914;8.420;2023-06-22T02:04:34;5.30;;;4.90;;
15708;SDS011;7954;51.914;8.420;2023-06-22T02:07:09;5.10;;;4.70;;
15708;SDS011;7954;51.914;8.420;2023-06-22T02:09:42;5.90;;;5.30;;
15708;SDS011;7954;51.914;8.420;2023-06-22T02:12:13;6.00;;;5.60;;
15708;SDS011;7954;51.914;8.420;2023-06-22T02:14:46;5.87;;;5.47;;
15708;SDS011;7954;51.914;8.420;2023-06-22T02:17:14;6.27;;;5.60;;
15708;SDS011;7954;51.914;8.420;2023-06-22T02:19:45;5.90;;;5.50;;
15708;SDS011;7954;51.914;8.420;2023-06-22T02:22:13;5.97;;;5.47;;
15708;SDS011;7954;51.914;8.420;2023-06-22T02:24:41;6.23;;;5.73;;
15708;SDS011;7954;51.914;8.420;2023-06-22T02:27:10;6.10;;;5.60;;
15708;SDS011;7954;51.914;8.420;2023-06-22T02:29:38;5.87;;;5.37;;
15708;SDS011;7954;51.914;8.420;2023-06-22T02:32:07;6.60;;;6.00;;
15708;SDS011;7954;51.914;8.420;2023-06-22T02:34:36;6.30;;;5.80;;
15708;SDS011;7954;51.914;8.420;2023-06-22T02:37:05;6.20;;;5.70;;
15708;SDS011;7954;51.914;8.420;2023-06-22T02:39:34;5.97;;;5.50;;
15708;SDS011;7954;51.914;8.420;2023-06-22T02:42:02;6.80;;;6.30;;
15708;SDS011;7954;51.914;8.420;2023-06-22T02:44:31;6.87;;;6.33;;
15708;SDS011;7954;51.914;8.420;2023-06-22T02:46:59;5.60;;;5.20;;
15708;SDS011;7954;51.914;8.420;2023-06-22T02:49:31;6.53;;;6.03;;
15708;SDS011;7954;51.914;8.420;2023-06-22T02:52:01;7.23;;;6.60;;
15708;SDS011;7954;51.914;8.420;2023-06-22T02:54:30;6.77;;;6.27;;
15708;SDS011;7954;51.914;8.420;2023-06-22T02:56:59;7.77;;;6.23;;
15708;SDS011;7954;51.914;8.420;2023-06-22T02:59:29;7.07;;;6.53;;
15708;SDS011;7954;51.914;8.420;2023-06-22T03:01:59;6.90;;;6.40;;
15708;SDS011;7954;51.914;8.420;2023-06-22T03:04:29;7.47;;;6.83;;
15708;SDS011;7954;51.914;8.420;2023-06-22T03:06:57;7.10;;;6.50;;
15708;SDS011;7954;51.914;8.420;2023-06-22T03:09:28;7.73;;;7.13;;
15708;SDS011;7954;51.914;8.420;2023-06-22T03:11:57;7.77;;;7.17;;
15708;SDS011;7954;51.914;8.420;2023-06-22T03:14:25;7.70;;;7.10;;
15708;SDS011;7954;51.914;8.420;2023-06-22T03:16:54;7.77;;;7.17;;
15708;SDS011;7954;51.914;8.420;2023-06-22T03:19:28;7.63;;;7.03;;
15708;SDS011;7954;51.914;8.420;2023-06-22T03:21:59;7.23;;;6.63;;
15708;SDS011;7954;51.914;8.420;2023-06-22T03:24:27;7.30;;;6.70;;
15708;SDS011;7954;51.914;8.420;2023-06-22T03:26:57;6.60;;;6.10;;
15708;SDS011;7954;51.914;8.420;2023-06-22T03:29:25;6.80;;;6.30;;
15708;SDS011;7954;51.914;8.420;2023-06-22T03:31:56;6.87;;;6.27;;
15708;SDS011;7954;51.914;8.420;2023-06-22T03:34:24;7.53;;;6.93;;
15708;SDS011;7954;51.914;8.420;2023-06-22T03:36:53;7.23;;;6.63;;
15708;SDS011;7954;51.914;8.420;2023-06-22T03:39:21;6.73;;;6.13;;
15708;SDS011;7954;51.914;8.420;2023-06-22T03:41:50;6.83;;;6.17;;
15708;SDS011;7954;51.914;8.420;2023-06-22T03:44:19;6.53;;;6.03;;
15708;SDS011;7954;51.914;8.420;2023-06-22T03:46:47;7.13;;;6.37;;
15708;SDS011;7954;51.914;8.420;2023-06-22T03:49:16;6.73;;;6.23;;
15708;SDS011;7954;51.914;8.420;2023-06-22T03:51:43;6.63;;;6.13;;
15708;SDS011;7954;51.914;8.420;2023-06-22T03:54:11;6.93;;;6.43;;
15708;SDS011;7954;51.914;8.420;2023-06-22T03:56:40;6.27;;;5.77;;
15708;SDS011;7954;51.914;8.420;2023-06-22T03:59:08;7.10;;;6.50;;
15708;SDS011;7954;51.914;8.420;2023-06-22T04:01:37;6.57;;;6.07;;
15708;SDS011;7954;51.914;8.420;2023-06-22T04:04:05;7.23;;;6.53;;
15708;SDS011;7954;51.914;8.420;2023-06-22T04:06:33;7.53;;;6.80;;
15708;SDS011;7954;51.914;8.420;2023-06-22T04:09:02;6.20;;;5.77;;
15708;SDS011;7954;51.914;8.420;2023-06-22T04:11:30;7.03;;;6.53;;
15708;SDS011;7954;51.914;8.420;2023-06-22T04:13:58;7.50;;;6.70;;
15708;SDS011;7954;51.914;8.420;2023-06-22T04:16:26;7.43;;;6.83;;
15708;SDS011;7954;51.914;8.420;2023-06-22T04:18:57;9.17;;;6.93;;
15708;SDS011;7954;51.914;8.420;2023-06-22T04:21:25;7.30;;;6.70;;
15708;SDS011;7954;51.914;8.420;2023-06-22T04:23:53;7.33;;;6.77;;
15708;SDS011;7954;51.914;8.420;2023-06-22T04:26:21;7.53;;;7.03;;
15708;SDS011;7954;51.914;8.420;2023-06-22T04:28:50;7.90;;;7.30;;
15708;SDS011;7954;51.914;8.420;2023-06-22T04:31:21;7.47;;;6.87;;
15708;SDS011;7954;51.914;8.420;2023-06-22T04:34:00;7.93;;;7.23;;
15708;SDS011;7954;51.914;8.420;2023-06-22T04:36:33;7.83;;;7.13;;
15708;SDS011;7954;51.914;8.420;2023-06-22T04:39:04;8.00;;;7.40;;
15708;SDS011;7954;51.914;8.420;2023-06-22T04:41:33;7.70;;;7.00;;
15708;SDS011;7954;51.914;8.420;2023-06-22T04:44:08;7.10;;;6.60;;
15708;SDS011;7954;51.914;8.420;2023-06-22T04:46:37;7.93;;;7.33;;
15708;SDS011;7954;51.914;8.420;2023-06-22T04:49:07;8.20;;;7.50;;
15708;SDS011;7954;51.914;8.420;2023-06-22T04:51:37;7.70;;;7.10;;
15708;SDS011;7954;51.914;8.420;2023-06-22T04:54:07;8.30;;;7.70;;
15708;SDS011;7954;51.914;8.420;2023-06-22T04:56:36;7.73;;;7.07;;
15708;SDS011;7954;51.914;8.420;2023-06-22T04:59:07;7.63;;;7.00;;
15708;SDS011;7954;51.914;8.420;2023-06-22T05:01:39;8.53;;;7.83;;
15708;SDS011;7954;51.914;8.420;2023-06-22T05:04:09;8.47;;;7.67;;
15708;SDS011;7954;51.914;8.420;2023-06-22T05:06:37;8.30;;;7.60;;
15708;SDS011;7954;51.914;8.420;2023-06-22T05:09:06;10.83;;;8.13;;
15708;SDS011;7954;51.914;8.420;2023-06-22T05:11:34;8.87;;;8.13;;
15708;SDS011;7954;51.914;8.420;2023-06-22T05:14:02;8.07;;;7.40;;
15708;SDS011;7954;51.914;8.420;2023-06-22T05:16:30;7.47;;;6.87;;
15708;SDS011;7954;51.914;8.420;2023-06-22T05:18:58;7.80;;;7.20;;
15708;SDS011;7954;51.914;8.420;2023-06-22T05:21:28;7.97;;;7.37;;
15708;SDS011;7954;51.914;8.420;2023-06-22T05:23:56;7.67;;;6.97;;
15708;SDS011;7954;51.914;8.420;2023-06-22T05:26:30;7.37;;;6.77;;
15708;SDS011;7954;51.914;8.420;2023-06-22T05:28:59;6.90;;;6.40;;
15708;SDS011;7954;51.914;8.420;2023-06-22T05:31:28;8.07;;;7.37;;
15708;SDS011;7954;51.914;8.420;2023-06-22T05:33:57;7.73;;;7.03;;
15708;SDS011;7954;51.914;8.420;2023-06-22T05:36:27;8.13;;;7.47;;
15708;SDS011;7954;51.914;8.420;2023-06-22T05:38:56;8.47;;;7.67;;
15708;SDS011;7954;51.914;8.420;2023-06-22T05:41:24;8.23;;;7.60;;
15708;SDS011;7954;51.914;8.420;2023-06-22T05:43:53;7.77;;;7.17;;
15708;SDS011;7954;51.914;8.420;2023-06-22T05:46:20;7.57;;;6.87;;
15708;SDS011;7954;51.914;8.420;2023-06-22T05:48:48;8.40;;;7.70;;
15708;SDS011;7954;51.914;8.420;2023-06-22T05:51:16;8.37;;;7.60;;
15708;SDS011;7954;51.914;8.420;2023-06-22T05:53:46;6.87;;;6.37;;
15708;SDS011;7954;51.914;8.420;2023-06-22T05:56:16;6.70;;;6.07;;
15708;SDS011;7954;51.914;8.420;2023-06-22T05:58:45;8.03;;;7.23;;
15708;SDS011;7954;51.914;8.420;2023-06-22T06:01:13;7.37;;;6.77;;
15708;SDS011;7954;51.914;8.420;2023-06-22T06:03:42;7.73;;;6.93;;
15708;SDS011;7954;51.914;8.420;2023-06-22T06:06:10;7.60;;;6.90;;
15708;SDS011;7954;51.914;8.420;2023-06-22T06:08:39;6.90;;;6.40;;
15708;SDS011;7954;51.914;8.420;2023-06-22T06:11:09;7.70;;;7.10;;
15708;SDS011;7954;51.914;8.420;2023-06-22T06:13:37;7.17;;;6.60;;
15708;SDS011;7954;51.914;8.420;2023-06-22T06:16:06;6.90;;;6.40;;
15708;SDS011;7954;51.914;8.420;2023-06-22T06:18:35;7.30;;;6.67;;
15708;SDS011;7954;51.914;8.420;2023-06-22T06:21:04;7.03;;;6.33;;
15708;SDS011;7954;51.914;8.420;2023-06-22T06:23:32;7.07;;;6.47;;
15708;SDS011;7954;51.914;8.420;2023-06-22T06:26:00;7.10;;;6.57;;
15708;SDS011;7954;51.914;8.420;2023-06-22T06:28:34;7.17;;;6.53;;
15708;SDS011;7954;51.914;8.420;2023-06-22T06:31:02;6.20;;;5.70;;
15708;SDS011;7954;51.914;8.420;2023-06-22T06:33:33;6.80;;;6.20;;
15708;SDS011;7954;51.914;8.420;2023-06-22T06:36:01;6.17;;;5.67;;
15708;SDS011;7954;51.914;8.420;2023-06-22T06:38:30;6.80;;;6.20;;
15708;SDS011;7954;51.914;8.420;2023-06-22T06:40:58;6.20;;;5.70;;
15708;SDS011;7954;51.914;8.420;2023-06-22T06:43:26;6.77;;;6.17;;
15708;SDS011;7954;51.914;8.420;2023-06-22T06:45:55;6.13;;;5.63;;
15708;SDS011;7954;51.914;8.420;2023-06-22T06:48:24;6.17;;;5.67;;
15708;SDS011;7954;51.914;8.420;2023-06-22T06:50:52;6.23;;;5.83;;
15708;SDS011;7954;51.914;8.420;2023-06-22T06:53:20;5.97;;;5.57;;
15708;SDS011;7954;51.914;8.420;2023-06-22T06:55:48;5.93;;;5.53;;
15708;SDS011;7954;51.914;8.420;2023-06-22T06:58:16;6.93;;;6.37;;
15708;SDS011;7954;51.914;8.420;2023-06-22T07:00:44;5.97;;;5.40;;
15708;SDS011;7954;51.914;8.420;2023-06-22T07:03:13;5.77;;;5.30;;
15708;SDS011;7954;51.914;8.420;2023-06-22T07:05:41;6.00;;;5.53;;
15708;SDS011;7954;51.914;8.420;2023-06-22T07:08:09;6.10;;;5.70;;
15708;SDS011;7954;51.914;8.420;2023-06-22T07:10:37;6.20;;;5.70;;
15708;SDS011;7954;51.914;8.420;2023-06-22T07:13:05;6.40;;;5.90;;
15708;SDS011;7954;51.914;8.420;2023-06-22T07:15:33;6.53;;;6.00;;
15708;SDS011;7954;51.914;8.420;2023-06-22T07:18:01;6.27;;;5.77;;
15708;SDS011;7954;51.914;8.420;2023-06-22T07:20:30;6.87;;;6.37;;
15708;SDS011;7954;51.914;8.420;2023-06-22T07:22:58;6.47;;;5.97;;
15708;SDS011;7954;51.914;8.420;2023-06-22T07:25:26;6.23;;;5.83;;
15708;SDS011;7954;51.914;8.420;2023-06-22T07:27:58;6.30;;;5.80;;
15708;SDS011;7954;51.914;8.420;2023-06-22T07:30:28;6.77;;;6.27;;
15708;SDS011;7954;51.914;8.420;2023-06-22T07:32:57;5.97;;;5.47;;
15708;SDS011;7954;51.914;8.420;2023-06-22T07:35:31;6.57;;;6.07;;
15708;SDS011;7954;51.914;8.420;2023-06-22T07:38:00;6.63;;;6.03;;
15708;SDS011;7954;51.914;8.420;2023-06-22T07:40:31;6.90;;;6.40;;
15708;SDS011;7954;51.914;8.420;2023-06-22T07:43:00;6.97;;;6.47;;
15708;SDS011;7954;51.914;8.420;2023-06-22T07:45:28;7.37;;;6.67;;
15708;SDS011;7954;51.914;8.420;2023-06-22T07:47:56;7.17;;;6.57;;
15708;SDS011;7954;51.914;8.420;2023-06-22T07:50:24;6.50;;;6.00;;
15708;SDS011;7954;51.914;8.420;2023-06-22T07:52:55;6.50;;;6.00;;
15708;SDS011;7954;51.914;8.420;2023-06-22T07:55:23;6.27;;;5.77;;
15708;SDS011;7954;51.914;8.420;2023-06-22T07:57:51;7.25;;;6.65;;
15708;SDS011;7954;51.914;8.420;2023-06-22T08:00:19;6.77;;;6.27;;
15708;SDS011;7954;51.914;8.420;2023-06-22T08:02:47;6.97;;;6.37;;
15708;SDS011;7954;51.914;8.420;2023-06-22T08:05:15;6.87;;;6.27;;
15708;SDS011;7954;51.914;8.420;2023-06-22T08:07:48;6.40;;;5.90;;
15708;SDS011;7954;51.914;8.420;2023-06-22T08:10:18;6.70;;;6.30;;
15708;SDS011;7954;51.914;8.420;2023-06-22T08:12:47;6.70;;;6.20;;
15708;SDS011;7954;51.914;8.420;2023-06-22T08:15:15;6.50;;;6.03;;
15708;SDS011;7954;51.914;8.420;2023-06-22T08:17:43;7.40;;;6.80;;
15708;SDS011;7954;51.914;8.420;2023-06-22T08:20:12;7.43;;;6.83;;
15708;SDS011;7954;51.914;8.420;2023-06-22T08:22:41;7.72;;;7.03;;
15708;SDS011;7954;51.914;8.420;2023-06-22T08:25:11;7.47;;;6.82;;
15708;SDS011;7954;51.914;8.420;2023-06-22T08:27:42;7.93;;;7.10;;
15708;SDS011;7954;51.914;8.420;2023-06-22T08:30:12;14.85;;;6.93;;
15708;SDS011;7954;51.914;8.420;2023-06-22T08:32:40;6.72;;;6.07;;
15708;SDS011;7954;51.914;8.420;2023-06-22T08:35:08;6.43;;;5.93;;
15708;SDS011;7954;51.914;8.420;2023-06-22T08:37:37;6.03;;;5.63;;
15708;SDS011;7954;51.914;8.420;2023-06-22T08:40:06;5.78;;;5.28;;
15708;SDS011;7954;51.914;8.420;2023-06-22T08:42:37;5.50;;;5.00;;
15708;SDS011;7954;51.914;8.420;2023-06-22T08:45:10;4.75;;;4.45;;
15708;SDS011;7954;51.914;8.420;2023-06-22T08:47:38;5.47;;;5.07;;
15708;SDS011;7954;51.914;8.420;2023-06-22T08:50:08;4.85;;;4.45;;
15708;SDS011;7954;51.914;8.420;2023-06-22T08:52:37;5.40;;;4.90;;
15708;SDS011;7954;51.914;8.420;2023-06-22T08:55:07;5.45;;;4.80;;
15708;SDS011;7954;51.914;8.420;2023-06-22T08:57:36;4.50;;;4.20;;
15708;SDS011;7954;51.914;8.420;2023-06-22T09:00:06;4.85;;;4.53;;
15708;SDS011;7954;51.914;8.420;2023-06-22T09:02:43;4.80;;;4.40;;
15708;SDS011;7954;51.914;8.420;2023-06-22T09:05:12;5.25;;;4.85;;
15708;SDS011;7954;51.914;8.420;2023-06-22T09:07:41;4.82;;;4.45;;
15708;SDS011;7954;51.914;8.420;2023-06-22T09:10:09;5.10;;;4.70;;
15708;SDS011;7954;51.914;8.420;2023-06-22T09:12:38;5.82;;;5.43;;
15708;SDS011;7954;51.914;8.420;2023-06-22T09:15:07;4.60;;;4.30;;
15708;SDS011;7954;51.914;8.420;2023-06-22T09:17:41;6.00;;;5.47;;
15708;SDS011;7954;51.914;8.420;2023-06-22T09:20:13;5.35;;;5.00;;
15708;SDS011;7954;51.914;8.420;2023-06-22T09:22:41;5.68;;;5.28;;
15708;SDS011;7954;51.914;8.420;2023-06-22T09:25:09;5.88;;;5.47;;
15708;SDS011;7954;51.914;8.420;2023-06-22T09:27:37;5.18;;;4.88;;
15708;SDS011;7954;51.914;8.420;2023-06-22T09:30:05;4.95;;;4.63;;
15708;SDS011;7954;51.914;8.420;2023-06-22T09:32:34;5.25;;;4.80;;
15708;SDS011;7954;51.914;8.420;2023-06-22T09:35:04;5.60;;;5.00;;
15708;SDS011;7954;51.914;8.420;2023-06-22T09:37:34;6.30;;;4.88;;
15708;SDS011;7954;51.914;8.420;2023-06-22T09:40:03;5.07;;;4.78;;
15708;SDS011;7954;51.914;8.420;2023-06-22T09:42:35;5.43;;;4.97;;
15708;SDS011;7954;51.914;8.420;2023-06-22T09:45:05;5.10;;;4.72;;
15708;SDS011;7954;51.914;8.420;2023-06-22T09:47:33;5.80;;;5.30;;
15708;SDS011;7954;51.914;8.420;2023-06-22T09:50:01;5.75;;;5.35;;
15708;SDS011;7954;51.914;8.420;2023-06-22T09:52:31;6.78;;;6.18;;
15708;SDS011;7954;51.914;8.420;2023-06-22T09:55:13;5.63;;;5.22;;
15708;SDS011;7954;51.914;8.420;2023-06-22T09:57:42;5.90;;;5.50;;
15708;SDS011;7954;51.914;8.420;2023-06-22T10:00:11;5.78;;;5.38;;
15708;SDS011;7954;51.914;8.420;2023-06-22T10:02:41;6.53;;;6.03;;
15708;SDS011;7954;51.914;8.420;2023-06-22T10:05:10;5.65;;;5.25;;
15708;SDS011;7954;51.914;8.420;2023-06-22T10:07:41;5.82;;;5.43;;
15708;SDS011;7954;51.914;8.420;2023-06-22T10:10:11;6.32;;;5.85;;
15708;SDS011;7954;51.914;8.420;2023-06-22T10:12:41;5.95;;;5.38;;
15708;SDS011;7954;51.914;8.420;2023-06-22T10:15:10;6.50;;;6.00;;
15708;SDS011;7954;51.914;8.420;2023-06-22T10:17:39;6.85;;;6.03;;
15708;SDS011;7954;51.914;8.420;2023-06-22T10:20:07;6.32;;;5.82;;
15708;SDS011;7954;51.914;8.420;2023-06-22T10:22:40;5.63;;;5.22;;
15708;SDS011;7954;51.914;8.420;2023-06-22T10:25:11;5.80;;;5.28;;
15708;SDS011;7954;51.914;8.420;2023-06-22T10:27:40;6.13;;;5.63;;
15708;SDS011;7954;51.914;8.420;2023-06-22T10:30:08;5.78;;;5.22;;
15708;SDS011;7954;51.914;8.420;2023-06-22T10:32:39;5.85;;;5.35;;
15708;SDS011;7954;51.914;8.420;2023-06-22T10:35:09;5.00;;;4.70;;
15708;SDS011;7954;51.914;8.420;2023-06-22T10:37:42;4.95;;;4.60;;
15708;SDS011;7954;51.914;8.420;2023-06-22T10:40:11;5.78;;;5.38;;
15708;SDS011;7954;51.914;8.420;2023-06-22T10:42:40;5.15;;;4.70;;
15708;SDS011;7954;51.914;8.420;2023-06-22T10:45:08;5.15;;;4.75;;
15708;SDS011;7954;51.914;8.420;2023-06-22T10:47:36;5.00;;;4.60;;
15708;SDS011;7954;51.914;8.420;2023-06-22T10:50:06;4.97;;;4.53;;
15708;SDS011;7954;51.914;8.420;2023-06-22T10:52:35;4.75;;;4.45;;
15708;SDS011;7954;51.914;8.420;2023-06-22T10:55:05;5.05;;;4.75;;
15708;SDS011;7954;51.914;8.420;2023-06-22T10:57:34;5.10;;;4.70;;
15708;SDS011;7954;51.914;8.420;2023-06-22T11:00:03;5.28;;;4.80;;
15708;SDS011;7954;51.914;8.420;2023-06-22T11:02:33;4.32;;;3.92;;
15708;SDS011;7954;51.914;8.420;2023-06-22T11:05:00;4.72;;;4.43;;
15708;SDS011;7954;51.914;8.420;2023-06-22T11:07:31;5.20;;;4.80;;
15708;SDS011;7954;51.914;8.420;2023-06-22T11:09:59;4.50;;;4.10;;
15708;SDS011;7954;51.914;8.420;2023-06-22T11:12:28;5.25;;;4.43;;
15708;SDS011;7954;51.914;8.420;2023-06-22T11:14:56;4.95;;;4.55;;
15708;SDS011;7954;51.914;8.420;2023-06-22T11:17:25;5.97;;;4.50;;
15708;SDS011;7954;51.914;8.420;2023-06-22T11:19:53;4.53;;;4.22;;
15708;SDS011;7954;51.914;8.420;2023-06-22T11:22:21;5.15;;;4.75;;
15708;SDS011;7954;51.914;8.420;2023-06-22T11:24:49;4.35;;;3.97;;
15708;SDS011;7954;51.914;8.420;2023-06-22T11:27:17;4.90;;;4.45;;
15708;SDS011;7954;51.914;8.420;2023-06-22T11:29:49;4.72;;;4.32;;
15708;SDS011;7954;51.914;8.420;2023-06-22T11:32:19;4.93;;;4.53;;
15708;SDS011;7954;51.914;8.420;2023-06-22T11:34:47;4.90;;;4.43;;
15708;SDS011;7954;51.914;8.420;2023-06-22T11:37:15;4.65;;;4.35;;
15708;SDS011;7954;51.914;8.420;2023-06-22T11:39:43;5.35;;;4.88;;
15708;SDS011;7954;51.914;8.420;2023-06-22T11:42:25;5.13;;;4.72;;
15708;SDS011;7954;51.914;8.420;2023-06-22T11:44:56;4.97;;;4.55;;
15708;SDS011;7954;51.914;8.420;2023-06-22T11:47:25;5.15;;;4.75;;
15708;SDS011;7954;51.914;8.420;2023-06-22T11:49:54;4.90;;;4.60;;
15708;SDS011;7954;51.914;8.420;2023-06-22T11:52:22;5.00;;;4.68;;
15708;SDS011;7954;51.914;8.420;2023-06-22T11:54:49;4.97;;;4.57;;
15708;SDS011;7954;51.914;8.420;2023-06-22T11:57:17;5.15;;;4.75;;
15708;SDS011;7954;51.914;8.420;2023-06-22T11:59:45;5.50;;;5.07;;
15708;SDS011;7954;51.914;8.420;2023-06-22T12:02:15;5.18;;;4.75;;
15708;SDS011;7954;51.914;8.420;2023-06-22T12:04:43;5.53;;;5.13;;
15708;SDS011;7954;51.914;8.420;2023-06-22T12:07:11;4.97;;;4.55;;
15708;SDS011;7954;51.914;8.420;2023-06-22T12:09:39;5.00;;;4.60;;
15708;SDS011;7954;51.914;8.420;2023-06-22T12:12:07;5.32;;;4.72;;
15708;SDS011;7954;51.914;8.420;2023-06-22T12:14:35;5.18;;;4.78;;
15708;SDS011;7954;51.914;8.420;2023-06-22T12:17:03;5.32;;;4.60;;
15708;SDS011;7954;51.914;8.420;2023-06-22T12:19:33;5.60;;;5.10;;
15708;SDS011;7954;51.914;8.420;2023-06-22T12:22:02;5.30;;;4.80;;
15708;SDS011;7954;51.914;8.420;2023-06-22T12:24:30;5.30;;;4.90;;
15708;SDS011;7954;51.914;8.420;2023-06-22T12:26:59;6.20;;;5.60;;
15708;SDS011;7954;51.914;8.420;2023-06-22T12:29:28;5.22;;;4.82;;
15708;SDS011;7954;51.914;8.420;2023-06-22T12:31:57;5.72;;;5.32;;
15708;SDS011;7954;51.914;8.420;2023-06-22T12:34:25;6.05;;;5.50;;
15708;SDS011;7954;51.914;8.420;2023-06-22T12:36:55;5.20;;;4.88;;
15708;SDS011;7954;51.914;8.420;2023-06-22T12:39:23;5.43;;;5.03;;
15708;SDS011;7954;51.914;8.420;2023-06-22T12:41:51;5.15;;;4.75;;
15708;SDS011;7954;51.914;8.420;2023-06-22T12:44:19;5.60;;;5.20;;
15708;SDS011;7954;51.914;8.420;2023-06-22T12:46:47;5.15;;;4.75;;
15708;SDS011;7954;51.914;8.420;2023-06-22T12:49:15;5.63;;;5.13;;
15708;SDS011;7954;51.914;8.420;2023-06-22T12:51:43;5.95;;;5.47;;
15708;SDS011;7954;51.914;8.420;2023-06-22T12:54:13;6.85;;;5.50;;
15708;SDS011;7954;51.914;8.420;2023-06-22T12:56:40;6.50;;;5.57;;
15708;SDS011;7954;51.914;8.420;2023-06-22T12:59:10;9.13;;;6.63;;
15708;SDS011;7954;51.914;8.420;2023-06-22T13:01:38;6.70;;;6.20;;
15708;SDS011;7954;51.914;8.420;2023-06-22T13:04:07;7.78;;;6.95;;
15708;SDS011;7954;51.914;8.420;2023-06-22T13:06:37;7.82;;;7.07;;
15708;SDS011;7954;51.914;8.420;2023-06-22T13:09:05;7.37;;;6.77;;
15708;SDS011;7954;51.914;8.420;2023-06-22T13:11:47;7.82;;;7.22;;
15708;SDS011;7954;51.914;8.420;2023-06-22T13:14:16;7.73;;;7.00;;
15708;SDS011;7954;51.914;8.420;2023-06-22T13:16:44;7.20;;;6.33;;
15708;SDS011;7954;51.914;8.420;2023-06-22T13:19:12;7.83;;;7.13;;
15708;SDS011;7954;51.914;8.420;2023-06-22T13:21:40;8.30;;;7.60;;
15708;SDS011;7954;51.914;8.420;2023-06-22T13:24:08;9.03;;;8.10;;
15708;SDS011;7954;51.914;8.420;2023-06-22T13:26:36;8.37;;;7.67;;
15708;SDS011;7954;51.914;8.420;2023-06-22T13:29:06;8.37;;;7.47;;
15708;SDS011;7954;51.914;8.420;2023-06-22T13:31:34;8.30;;;7.60;;
15708;SDS011;7954;51.914;8.420;2023-06-22T13:34:02;8.37;;;7.53;;
15708;SDS011;7954;51.914;8.420;2023-06-22T13:36:29;8.20;;;7.50;;
15708;SDS011;7954;51.914;8.420;2023-06-22T13:38:58;8.73;;;7.83;;
15708;SDS011;7954;51.914;8.420;2023-06-22T13:41:27;9.47;;;8.57;;
15708;SDS011;7954;51.914;8.420;2023-06-22T13:43:55;9.10;;;8.33;;
15708;SDS011;7954;51.914;8.420;2023-06-22T13:46:24;8.57;;;7.87;;
15708;SDS011;7954;51.914;8.420;2023-06-22T13:48:53;9.10;;;8.30;;
15708;SDS011;7954;51.914;8.420;2023-06-22T13:51:22;9.37;;;8.57;;
15708;SDS011;7954;51.914;8.420;2023-06-22T13:53:50;9.60;;;8.80;;
15708;SDS011;7954;51.914;8.420;2023-06-22T13:56:18;9.87;;;8.97;;
15708;SDS011;7954;51.914;8.420;2023-06-22T13:58:46;11.37;;;10.47;;
15708;SDS011;7954;51.914;8.420;2023-06-22T14:01:14;9.93;;;9.07;;
15708;SDS011;7954;51.914;8.420;2023-06-22T14:03:44;9.93;;;9.13;;
15708;SDS011;7954;51.914;8.420;2023-06-22T14:06:13;10.77;;;9.97;;
15708;SDS011;7954;51.914;8.420;2023-06-22T14:08:41;11.30;;;10.20;;
15708;SDS011;7954;51.914;8.420;2023-06-22T14:11:09;9.33;;;8.53;;
15708;SDS011;7954;51.914;8.420;2023-06-22T14:13:37;9.17;;;8.40;;
15708;SDS011;7954;51.914;8.420;2023-06-22T14:16:05;7.47;;;6.90;;
15708;SDS011;7954;51.914;8.420;2023-06-22T14:18:33;7.20;;;6.60;;
15708;SDS011;7954;51.914;8.420;2023-06-22T14:21:02;6.70;;;6.20;;
15708;SDS011;7954;51.914;8.420;2023-06-22T14:23:30;6.43;;;5.93;;
15708;SDS011;7954;51.914;8.420;2023-06-22T14:25:58;7.27;;;6.50;;
15708;SDS011;7954;51.914;8.420;2023-06-22T14:28:26;7.37;;;6.77;;
15708;SDS011;7954;51.914;8.420;2023-06-22T14:30:54;8.23;;;7.53;;
15708;SDS011;7954;51.914;8.420;2023-06-22T14:33:22;9.13;;;8.43;;
15708;SDS011;7954;51.914;8.420;2023-06-22T14:35:51;8.53;;;7.93;;
15708;SDS011;7954;51.914;8.420;2023-06-22T14:38:20;9.30;;;8.50;;
15708;SDS011;7954;51.914;8.420;2023-06-22T14:40:50;9.20;;;8.50;;
15708;SDS011;7954;51.914;8.420;2023-06-22T14:43:38;9.27;;;8.57;;
15708;SDS011;7954;51.914;8.420;2023-06-22T14:46:06;9.70;;;8.90;;
15708;SDS011;7954;51.914;8.420;2023-06-22T14:48:34;9.77;;;8.80;;
15708;SDS011;7954;51.914;8.420;2023-06-22T14:51:02;9.17;;;8.47;;
15708;SDS011;7954;51.914;8.420;2023-06-22T14:53:31;8.70;;;8.00;;
15708;SDS011;7954;51.914;8.420;2023-06-22T14:55:59;8.80;;;8.10;;
15708;SDS011;7954;51.914;8.420;2023-06-22T14:58:28;8.20;;;7.60;;
15708;SDS011;7954;51.914;8.420;2023-06-22T15:00:59;7.07;;;6.45;;
15708;SDS011;7954;51.914;8.420;2023-06-22T15:03:27;7.57;;;7.03;;
15708;SDS011;7954;51.914;8.420;2023-06-22T15:05:57;7.43;;;6.82;;
15708;SDS011;7954;51.914;8.420;2023-06-22T15:08:26;7.05;;;6.38;;
15708;SDS011;7954;51.914;8.420;2023-06-22T15:10:57;6.78;;;6.13;;
15708;SDS011;7954;51.914;8.420;2023-06-22T15:13:26;6.32;;;5.82;;